createdAt,value
2018-05-12T00:01:37.255Z,99.90
2018-05-12T00:04:05.477Z,99.90
2018-05-12T00:06:32.911Z,99.90
2018-05-12T00:09:00.350Z,99.90
2018-05-12T00:11:28.555Z,99.90
2018-05-12T00:13:56.767Z,99.90
2018-05-12T00:16:24.206Z,99.90
2018-05-12T00:18:51.656Z,99.90
2018-05-12T00:21:19.087Z,99.90
2018-05-12T00:23:46.525Z,99.90
2018-05-12T00:26:14.731Z,99.90
2018-05-12T00:28:42.174Z,99.90
2018-05-12T00:31:09.611Z,99.90
2018-05-12T00:33:37.815Z,99.90
2018-05-12T00:36:05.253Z,99.90
2018-05-12T00:38:33.459Z,99.90
2018-05-12T00:41:00.904Z,99.90
2018-05-12T00:43:28.341Z,99.90
2018-05-12T00:45:56.559Z,99.90
2018-05-12T00:48:24.119Z,99.90
2018-05-12T00:50:51.564Z,99.90
2018-05-12T00:53:19.000Z,99.90
2018-05-12T00:55:46.448Z,99.90
2018-05-12T00:58:14.658Z,99.90
2018-05-12T01:00:42.117Z,99.90
2018-05-12T01:03:09.551Z,99.90
2018-05-12T01:05:37.006Z,99.90
2018-05-12T01:08:04.451Z,99.90
2018-05-12T01:10:32.663Z,99.90
2018-05-12T01:13:00.115Z,99.90
2018-05-12T01:15:27.559Z,99.90
2018-05-12T01:17:55.402Z,99.90
2018-05-12T01:20:23.607Z,99.90
2018-05-12T01:22:51.046Z,99.90
2018-05-12T01:25:18.487Z,99.90
2018-05-12T01:27:46.695Z,99.90
2018-05-12T01:30:14.115Z,99.90
2018-05-12T01:32:42.331Z,99.90
2018-05-12T01:35:09.786Z,99.90
2018-05-12T01:37:37.225Z,99.90
2018-05-12T01:40:04.652Z,99.90
2018-05-12T01:42:32.880Z,99.90
2018-05-12T01:45:00.311Z,99.90
2018-05-12T01:47:27.751Z,99.90
2018-05-12T01:49:55.969Z,99.90
2018-05-12T01:52:23.412Z,99.90
2018-05-12T01:54:50.839Z,99.90
2018-05-12T01:57:19.046Z,99.90
2018-05-12T01:59:46.480Z,99.90
2018-05-12T02:02:14.691Z,99.90
2018-05-12T02:04:42.139Z,99.90
2018-05-12T02:07:09.591Z,99.90
2018-05-12T02:09:37.020Z,99.90
2018-05-12T02:12:05.239Z,99.90
2018-05-12T02:14:32.671Z,99.90
2018-05-12T02:17:00.131Z,99.90
2018-05-12T02:19:27.565Z,99.90
2018-05-12T02:21:55.775Z,99.90
2018-05-12T02:24:23.235Z,99.90
2018-05-12T02:26:50.677Z,99.90
2018-05-12T02:29:18.120Z,99.90
2018-05-12T02:31:46.933Z,99.90
2018-05-12T02:34:14.367Z,99.90
2018-05-12T02:36:41.822Z,99.90
2018-05-12T02:39:10.139Z,99.90
2018-05-12T02:41:37.495Z,99.90
2018-05-12T02:44:04.936Z,99.90
2018-05-12T02:46:32.384Z,99.90
2018-05-12T02:48:59.824Z,99.90
2018-05-12T02:51:28.016Z,99.90
2018-05-12T02:53:55.464Z,99.90
2018-05-12T02:56:22.903Z,99.90
2018-05-12T02:58:51.520Z,99.90
2018-05-12T03:01:18.957Z,99.90
2018-05-12T03:03:47.170Z,99.90
2018-05-12T03:06:14.599Z,99.90
2018-05-12T03:08:42.815Z,99.90
2018-05-12T03:11:10.246Z,99.90
2018-05-12T03:13:37.691Z,99.90
2018-05-12T03:16:06.831Z,99.90
2018-05-12T03:18:34.254Z,99.90
2018-05-12T03:21:01.685Z,99.90
2018-05-12T03:23:29.899Z,99.90
2018-05-12T03:25:57.419Z,99.90
2018-05-12T03:28:25.627Z,99.90
2018-05-12T03:30:53.059Z,99.90
2018-05-12T03:33:20.520Z,99.90
2018-05-12T03:35:48.720Z,99.90
2018-05-12T03:38:16.165Z,99.90
2018-05-12T03:40:43.606Z,99.90
2018-05-12T03:43:11.055Z,99.90
2018-05-12T03:45:39.256Z,99.90
2018-05-12T03:48:06.689Z,99.90
2018-05-12T03:50:34.900Z,99.90
2018-05-12T03:53:02.352Z,99.90
2018-05-12T03:55:29.802Z,99.90
2018-05-12T03:57:57.235Z,99.90
2018-05-12T04:00:26.368Z,99.90
2018-05-12T04:02:53.802Z,99.90
2018-05-12T04:05:33.172Z,99.90
2018-05-12T04:08:12.571Z,99.90
2018-05-12T04:10:42.795Z,99.90
2018-05-12T04:13:10.229Z,99.90
2018-05-12T04:15:38.451Z,99.90
2018-05-12T04:18:06.139Z,99.90
2018-05-12T04:20:34.093Z,99.90
2018-05-12T04:23:01.526Z,99.90
2018-05-12T04:25:28.970Z,99.90
2018-05-12T04:27:56.401Z,99.90
2018-05-12T04:30:24.615Z,99.90
2018-05-12T04:32:52.082Z,99.90
2018-05-12T04:35:19.787Z,99.90
2018-05-12T04:37:48.728Z,99.90
2018-05-12T04:40:16.156Z,99.90
2018-05-12T04:42:45.280Z,99.90
2018-05-12T04:45:12.732Z,99.90
2018-05-12T04:47:40.182Z,99.90
2018-05-12T04:50:07.640Z,99.90
2018-05-12T04:52:35.835Z,99.90
2018-05-12T04:55:03.280Z,99.90
2018-05-12T04:57:30.720Z,99.90
2018-05-12T04:59:58.939Z,99.90
2018-05-12T05:02:26.388Z,99.90
2018-05-12T05:04:53.828Z,99.90
2018-05-12T05:07:21.284Z,99.90
2018-05-12T05:09:48.723Z,99.90
2018-05-12T05:12:16.940Z,99.90
2018-05-12T05:14:44.384Z,99.90
2018-05-12T05:17:11.824Z,99.90
2018-05-12T05:19:39.279Z,99.90
2018-05-12T05:22:06.715Z,99.90
2018-05-12T05:24:34.914Z,99.90
2018-05-12T05:27:02.362Z,99.90
2018-05-12T05:29:29.812Z,99.90
2018-05-12T05:31:58.029Z,99.90
2018-05-12T05:34:25.491Z,99.90
2018-05-12T05:36:52.931Z,99.90
2018-05-12T05:39:20.399Z,99.90
2018-05-12T05:41:48.670Z,99.90
2018-05-12T05:44:16.099Z,99.90
2018-05-12T05:46:43.535Z,99.90
2018-05-12T05:49:11.768Z,99.90
2018-05-12T05:51:39.212Z,99.90
2018-05-12T05:54:06.647Z,99.90
2018-05-12T05:56:34.103Z,99.90
2018-05-12T05:59:01.540Z,99.90
2018-05-12T06:01:29.773Z,99.90
2018-05-12T06:03:57.204Z,99.90
2018-05-12T06:06:24.788Z,99.90
2018-05-12T06:08:52.220Z,99.90
2018-05-12T06:11:19.663Z,99.90
2018-05-12T06:13:47.099Z,99.90
2018-05-12T06:16:15.314Z,99.90
2018-05-12T06:18:42.765Z,99.90
2018-05-12T06:21:10.223Z,99.90
2018-05-12T06:23:37.656Z,99.90
2018-05-12T06:26:05.883Z,99.90
2018-05-12T06:28:33.440Z,99.90
2018-05-12T06:31:00.881Z,99.90
2018-05-12T06:33:28.414Z,99.90
2018-05-12T06:35:55.760Z,99.90
2018-05-12T06:38:23.971Z,99.90
2018-05-12T06:40:51.410Z,99.90
2018-05-12T06:43:18.858Z,99.90
2018-05-12T06:45:47.059Z,99.90
2018-05-12T06:48:14.510Z,99.90
2018-05-12T06:50:41.948Z,99.90
2018-05-12T06:53:09.389Z,99.90
2018-05-12T06:55:37.595Z,99.90
2018-05-12T06:58:05.046Z,99.90
2018-05-12T07:00:32.503Z,99.90
2018-05-12T07:02:59.939Z,99.90
2018-05-12T07:05:28.143Z,99.90
2018-05-12T07:07:56.946Z,99.90
2018-05-12T07:10:24.415Z,99.90
2018-05-12T07:12:51.854Z,99.90
2018-05-12T07:15:19.300Z,99.90
2018-05-12T07:17:46.747Z,99.90
2018-05-12T07:20:14.243Z,99.90
2018-05-12T07:22:41.688Z,99.90
2018-05-12T07:25:09.127Z,99.90
2018-05-12T07:27:36.567Z,99.90
2018-05-12T07:30:05.692Z,99.90
2018-05-12T07:32:33.132Z,99.90
2018-05-12T07:35:00.564Z,99.90
2018-05-12T07:37:28.792Z,99.90
2018-05-12T07:39:56.260Z,99.90
2018-05-12T07:42:23.700Z,99.90
2018-05-12T08:00:55.458Z,99.90
2018-05-12T08:03:22.988Z,99.90
2018-05-12T08:05:50.372Z,99.90
2018-05-12T08:08:17.811Z,99.90
2018-05-12T08:10:45.249Z,99.90
2018-05-12T08:13:12.702Z,99.90
2018-05-12T08:15:40.155Z,99.90
2018-05-12T08:18:07.616Z,99.90
2018-05-12T08:20:35.841Z,99.90
2018-05-12T08:23:03.261Z,99.90
2018-05-12T08:25:31.478Z,99.90
2018-05-12T08:27:58.926Z,99.90
2018-05-12T08:30:26.387Z,99.90
2018-05-12T08:32:53.828Z,99.90
2018-05-12T08:35:21.332Z,99.90
2018-05-12T08:37:48.771Z,99.90
2018-05-12T08:40:16.219Z,99.90
2018-05-12T08:42:43.659Z,99.90
2018-05-12T08:45:11.098Z,99.90
2018-05-12T08:47:39.297Z,99.90
2018-05-12T08:50:06.746Z,99.90
2018-05-12T08:52:34.199Z,99.90
2018-05-12T08:55:02.442Z,99.90
2018-05-12T08:57:29.863Z,99.90
2018-05-12T08:59:57.327Z,99.90
2018-05-12T09:02:24.763Z,99.90
2018-05-12T09:04:52.218Z,99.90
2018-05-12T09:07:19.679Z,99.90
2018-05-12T09:09:47.123Z,99.90
2018-05-12T09:12:14.568Z,99.90
2018-05-12T09:14:42.011Z,99.90
2018-05-12T09:17:10.224Z,99.90
2018-05-12T09:19:37.663Z,99.90
2018-05-12T09:22:05.091Z,99.90
2018-05-12T09:24:33.313Z,99.90
2018-05-12T09:27:00.747Z,99.90
2018-05-12T09:29:28.255Z,99.90
2018-05-12T09:31:55.692Z,99.90
2018-05-12T09:34:23.135Z,99.90
2018-05-12T09:36:50.580Z,99.90
2018-05-12T09:39:18.020Z,99.90
2018-05-12T09:41:46.240Z,99.90
2018-05-12T09:44:13.681Z,99.90
2018-05-12T09:46:41.131Z,99.90
2018-05-12T09:49:08.562Z,99.90
2018-05-12T09:51:36.783Z,99.90
2018-05-12T09:54:04.251Z,99.90
2018-05-12T09:56:31.715Z,99.90
2018-05-12T09:58:59.144Z,99.90
2018-05-12T10:01:26.583Z,99.90
2018-05-12T10:03:54.023Z,99.90
2018-05-12T10:06:22.231Z,99.90
2018-05-12T10:08:49.670Z,99.90
2018-05-12T10:11:17.110Z,99.90
2018-05-12T10:13:45.323Z,99.90
2018-05-12T10:16:12.780Z,99.90
2018-05-12T10:18:40.223Z,99.90
2018-05-12T10:21:07.658Z,99.90
2018-05-12T10:23:35.856Z,99.90
2018-05-12T10:26:03.303Z,99.90
2018-05-12T10:28:31.519Z,99.90
2018-05-12T10:30:59.144Z,99.90
2018-05-12T10:33:26.579Z,99.90
2018-05-12T10:35:54.798Z,99.90
2018-05-12T10:38:22.228Z,99.90
2018-05-12T10:40:49.662Z,99.90
2018-05-12T10:43:17.871Z,99.90
2018-05-12T10:45:45.311Z,99.90
2018-05-12T10:48:13.524Z,99.90
2018-05-12T10:50:40.979Z,99.90
2018-05-12T10:53:08.429Z,99.90
2018-05-12T10:55:35.861Z,99.90
2018-05-12T10:58:04.059Z,99.90
2018-05-12T11:00:31.498Z,99.90
2018-05-12T11:02:58.934Z,99.90
2018-05-12T11:05:27.150Z,99.90
2018-05-12T11:07:54.584Z,99.90
2018-05-12T11:10:22.035Z,99.90
2018-05-12T11:12:50.258Z,99.90
2018-05-12T11:15:17.690Z,99.90
2018-05-12T11:17:45.133Z,99.50
2018-05-12T11:20:12.672Z,99.90
2018-05-12T11:22:40.804Z,99.90
2018-05-12T11:25:08.243Z,99.90
2018-05-12T11:27:35.692Z,99.90
2018-05-12T11:30:03.192Z,99.90
2018-05-12T11:32:32.153Z,99.90
2018-05-12T11:34:59.592Z,99.90
2018-05-12T11:37:27.036Z,99.90
2018-05-12T11:39:55.243Z,99.70
2018-05-12T11:42:22.693Z,99.70
2018-05-12T11:44:50.122Z,99.10
2018-05-12T11:47:18.342Z,99.90
2018-05-12T11:49:45.783Z,99.90
2018-05-12T11:52:13.231Z,99.30
2018-05-12T11:54:40.671Z,99.90
2018-05-12T11:57:08.887Z,98.20
2018-05-12T11:59:36.318Z,98.10
2018-05-12T12:02:03.771Z,98.10
2018-05-12T12:04:31.207Z,97.90
2018-05-12T12:06:59.407Z,97.80
2018-05-12T12:09:26.859Z,97.80
2018-05-12T12:11:54.302Z,97.90
2018-05-12T12:14:22.495Z,97.70
2018-05-12T12:16:49.946Z,97.70
2018-05-12T12:19:17.388Z,96.80
2018-05-12T12:21:45.603Z,98.00
2018-05-12T12:24:13.035Z,97.90
2018-05-12T12:26:40.478Z,98.30
2018-05-12T12:29:08.692Z,97.40
2018-05-12T12:31:36.132Z,97.30
2018-05-12T12:34:03.555Z,97.90
2018-05-12T12:36:31.768Z,97.40
2018-05-12T12:38:59.205Z,97.40
2018-05-12T12:41:27.400Z,96.80
2018-05-12T12:43:54.840Z,96.80
2018-05-12T12:46:22.266Z,96.10
2018-05-12T12:48:49.715Z,96.10
2018-05-12T12:51:17.925Z,95.20
2018-05-12T12:53:46.142Z,94.30
2018-05-12T12:56:13.573Z,94.30
2018-05-12T12:58:41.025Z,94.70
2018-05-12T13:01:08.466Z,95.10
2018-05-12T13:03:36.660Z,95.20
2018-05-12T13:06:04.099Z,95.20
2018-05-12T13:08:32.320Z,94.90
2018-05-12T13:10:59.739Z,94.90
2018-05-12T13:13:27.183Z,94.10
2018-05-12T13:15:55.508Z,94.50
2018-05-12T13:18:22.867Z,94.50
2018-05-12T13:20:50.305Z,93.70
2018-05-12T13:23:17.739Z,94.00
2018-05-12T13:25:45.173Z,94.50
2018-05-12T13:28:13.378Z,94.20
2018-05-12T13:30:40.811Z,94.00
2018-05-12T13:33:09.019Z,93.20
2018-05-12T13:35:36.450Z,93.10
2018-05-12T13:38:04.643Z,92.20
2018-05-12T13:40:32.074Z,92.20
2018-05-12T13:43:00.284Z,91.20
2018-05-12T13:45:27.703Z,91.10
2018-05-12T13:47:55.907Z,91.60
2018-05-12T13:50:23.344Z,91.60
2018-05-12T13:52:51.545Z,91.50
2018-05-12T13:55:18.975Z,91.50
2018-05-12T13:57:47.196Z,90.40
2018-05-12T14:00:14.623Z,90.40
2018-05-12T14:02:42.057Z,90.10
2018-05-12T14:05:10.333Z,91.80
2018-05-12T14:07:37.756Z,91.80
2018-05-12T14:10:05.191Z,90.70
2018-05-12T14:12:32.623Z,89.50
2018-05-12T14:15:00.082Z,88.30
2018-05-12T14:17:27.523Z,89.80
2018-05-12T14:19:55.664Z,87.70
2018-05-12T14:22:23.105Z,88.10
2018-05-12T14:24:50.530Z,89.40
2018-05-12T14:27:17.963Z,90.30
2018-05-12T14:29:46.166Z,88.70
2018-05-12T14:32:13.601Z,88.70
2018-05-12T14:34:41.909Z,87.10
2018-05-12T14:37:09.382Z,87.00
2018-05-12T14:39:36.829Z,87.90
2018-05-12T14:42:04.259Z,86.70
2018-05-12T14:44:31.700Z,85.50
2018-05-12T14:46:59.899Z,84.10
2018-05-12T14:49:27.349Z,84.10
2018-05-12T14:51:55.551Z,84.30
2018-05-12T14:54:23.016Z,84.20
2018-05-12T14:56:50.453Z,83.80
2018-05-12T14:59:17.899Z,84.80
2018-05-12T15:01:45.349Z,84.30
2018-05-12T15:04:13.557Z,83.80
2018-05-12T15:06:40.987Z,83.80
2018-05-12T15:09:08.431Z,82.50
2018-05-12T15:11:36.636Z,81.50
2018-05-12T15:14:04.095Z,80.70
2018-05-12T15:16:31.546Z,80.60
2018-05-12T15:18:58.993Z,81.00
2018-05-12T15:21:26.489Z,80.30
2018-05-12T15:23:54.627Z,80.80
2018-05-12T15:26:22.073Z,80.80
2018-05-12T15:28:49.532Z,79.70
2018-05-12T15:31:16.960Z,81.40
2018-05-12T15:33:44.395Z,79.80
2018-05-12T15:36:11.893Z,77.90
2018-05-12T15:38:39.295Z,78.30
2018-05-12T15:41:06.751Z,79.40
2018-05-12T15:43:34.224Z,78.40
2018-05-12T15:46:01.615Z,77.80
2018-05-12T15:48:29.804Z,78.00
2018-05-12T15:50:57.245Z,77.90
2018-05-12T15:53:25.434Z,78.60
2018-05-12T15:55:52.869Z,78.60
2018-05-12T15:58:21.065Z,79.40
2018-05-12T16:00:48.545Z,78.70
2018-05-12T16:03:16.036Z,79.20
2018-05-12T16:05:44.171Z,77.20
2018-05-12T16:08:11.612Z,77.00
2018-05-12T16:10:39.816Z,77.10
2018-05-12T16:13:07.259Z,77.00
2018-05-12T16:15:34.706Z,77.40
2018-05-12T16:18:02.896Z,77.30
2018-05-12T16:20:30.386Z,77.30
2018-05-12T16:22:58.519Z,76.10
2018-05-12T16:25:25.962Z,76.00
2018-05-12T16:27:54.162Z,74.80
2018-05-12T16:30:21.613Z,74.70
2018-05-12T16:32:49.057Z,75.80
2018-05-12T16:35:16.934Z,76.10
2018-05-12T16:37:44.359Z,77.10
2018-05-12T16:40:12.595Z,75.60
2018-05-12T16:42:40.016Z,75.60
2018-05-12T16:45:07.453Z,74.90
2018-05-12T16:47:35.647Z,76.00
2018-05-12T16:50:03.119Z,75.90
2018-05-12T16:52:30.551Z,75.40
2018-05-12T16:54:57.984Z,76.40
2018-05-12T16:57:25.419Z,75.80
2018-05-12T16:59:52.879Z,74.00
2018-05-12T17:02:20.308Z,75.30
2018-05-12T17:04:47.751Z,74.70
2018-05-12T17:07:15.196Z,75.00
2018-05-12T17:09:42.636Z,74.30
2018-05-12T17:12:10.846Z,73.80
2018-05-12T17:14:38.270Z,73.80
2018-05-12T17:17:06.488Z,77.00
2018-05-12T17:19:33.918Z,76.90
2018-05-12T17:22:01.360Z,78.30
2018-05-12T17:24:29.549Z,79.20
2018-05-12T17:26:57.025Z,79.10
2018-05-12T17:29:24.621Z,80.00
2018-05-12T17:31:52.069Z,81.00
2018-05-12T17:34:19.505Z,80.80
2018-05-12T17:36:46.935Z,80.10
2018-05-12T17:39:14.362Z,81.00
2018-05-12T17:41:41.807Z,81.90
2018-05-12T17:44:09.236Z,82.30
2018-05-12T17:46:36.676Z,82.70
2018-05-12T17:49:04.103Z,82.40
2018-05-12T17:51:32.306Z,83.60
2018-05-12T17:53:59.752Z,83.60
2018-05-12T17:56:27.244Z,84.00
2018-05-12T17:58:54.703Z,86.30
2018-05-12T18:01:22.172Z,84.40
2018-05-12T18:03:49.669Z,85.10
2018-05-12T18:06:17.035Z,85.10
2018-05-12T18:08:44.457Z,85.10
2018-05-12T18:11:12.659Z,85.50
2018-05-12T18:13:40.855Z,86.10
2018-05-12T18:16:08.299Z,86.10
2018-05-12T18:18:35.744Z,85.90
2018-05-12T18:21:03.971Z,86.60
2018-05-12T18:23:31.399Z,86.50
2018-05-12T18:25:58.833Z,87.90
2018-05-12T18:28:27.040Z,89.10
2018-05-12T18:30:54.472Z,89.10
2018-05-12T18:33:22.680Z,90.80
2018-05-12T18:35:50.124Z,90.70
2018-05-12T18:38:17.560Z,91.70
2018-05-12T18:40:45.763Z,92.70
2018-05-12T18:43:13.231Z,92.70
2018-05-12T18:45:40.667Z,92.80
2018-05-12T18:48:08.107Z,93.10
2018-05-12T18:50:35.548Z,93.80
2018-05-12T18:53:03.759Z,95.70
2018-05-12T18:55:31.199Z,95.40
2018-05-12T18:57:59.416Z,96.00
2018-05-12T19:00:26.847Z,95.90
2018-05-12T19:02:54.291Z,96.30
2018-05-12T19:05:22.145Z,96.40
2018-05-12T19:07:50.374Z,97.30
2018-05-12T19:10:17.810Z,97.30
2018-05-12T19:12:45.252Z,98.80
2018-05-12T19:15:12.685Z,99.90
2018-05-12T19:17:40.903Z,99.70
2018-05-12T19:20:08.372Z,99.70
2018-05-12T19:22:35.811Z,98.50
2018-05-12T19:25:03.240Z,98.60
2018-05-12T19:27:31.435Z,99.00
2018-05-12T19:29:58.871Z,98.90
2018-05-12T19:32:27.378Z,98.80
2018-05-12T19:34:54.813Z,98.80
2018-05-12T19:37:23.032Z,99.60
2018-05-12T19:39:50.476Z,99.60
2018-05-12T19:42:17.912Z,99.90
2018-05-12T19:44:45.394Z,99.90
2018-05-12T19:47:12.835Z,99.90
2018-05-12T19:49:40.419Z,99.90
2018-05-12T19:52:08.655Z,99.90
2018-05-12T19:54:37.603Z,99.90
2018-05-12T19:57:05.072Z,99.90
2018-05-12T19:59:32.507Z,99.90
2018-05-12T20:01:59.943Z,99.90
2018-05-12T20:04:27.395Z,99.90
2018-05-12T20:06:54.883Z,99.90
2018-05-12T20:09:22.343Z,99.90
2018-05-12T20:11:49.775Z,99.90
2018-05-12T20:14:17.216Z,99.90
2018-05-12T20:16:44.680Z,99.90
2018-05-12T20:19:12.107Z,99.90
2018-05-12T20:21:40.449Z,99.90
2018-05-12T20:24:07.977Z,99.90
2018-05-12T20:26:35.397Z,99.90
2018-05-12T20:29:03.597Z,99.90
2018-05-12T20:31:31.021Z,99.90
2018-05-12T20:33:58.477Z,99.90
2018-05-12T20:36:26.003Z,99.90
2018-05-12T20:38:53.461Z,99.90
2018-05-12T20:41:20.882Z,99.90
2018-05-12T20:43:48.313Z,99.90
2018-05-12T20:46:16.509Z,99.90
2018-05-12T20:48:43.949Z,99.90
2018-05-12T20:51:12.151Z,99.90
2018-05-12T20:53:39.603Z,99.90
2018-05-12T20:56:07.027Z,99.90
2018-05-12T20:58:34.460Z,99.90
2018-05-12T21:01:01.892Z,99.90
2018-05-12T21:03:29.319Z,99.90
2018-05-12T21:05:56.760Z,99.90
2018-05-12T21:08:24.968Z,99.90
2018-05-12T21:10:52.407Z,99.90
2018-05-12T21:13:19.835Z,99.90
2018-05-12T21:15:47.281Z,99.90
2018-05-12T21:18:14.720Z,99.90
2018-05-12T21:20:42.163Z,99.90
2018-05-12T21:23:09.611Z,99.90
2018-05-12T21:25:37.059Z,99.90
2018-05-12T21:28:04.497Z,99.90
2018-05-12T21:30:32.703Z,99.90
2018-05-12T21:33:00.131Z,99.90
2018-05-12T21:35:27.753Z,99.90
2018-05-12T21:37:55.196Z,99.90
2018-05-12T21:40:22.661Z,99.90
2018-05-12T21:42:50.089Z,99.90
2018-05-12T21:45:17.602Z,99.90
2018-05-12T21:47:45.804Z,99.90
2018-05-12T21:50:13.263Z,99.90
2018-05-12T21:52:41.443Z,99.90
2018-05-12T21:55:08.883Z,99.90
2018-05-12T21:57:36.317Z,99.90
2018-05-12T22:00:05.264Z,99.90
2018-05-12T22:02:32.691Z,99.90
2018-05-12T22:05:00.911Z,99.90
2018-05-12T22:07:28.339Z,99.90
2018-05-12T22:09:55.770Z,99.90
2018-05-12T22:12:23.980Z,99.90
2018-05-12T22:14:51.406Z,99.90
2018-05-12T22:17:19.613Z,99.90
2018-05-12T22:19:47.039Z,99.90
2018-05-12T22:22:15.253Z,99.90
2018-05-12T22:24:42.730Z,99.90
2018-05-12T22:27:10.156Z,99.90
2018-05-12T22:29:37.587Z,99.90
2018-05-12T22:32:05.816Z,99.90
2018-05-12T22:34:33.264Z,99.90
2018-05-12T22:37:00.703Z,99.90
2018-05-12T22:39:28.131Z,99.90
2018-05-12T22:41:56.335Z,99.90
2018-05-12T22:44:23.766Z,99.90
2018-05-12T22:46:51.969Z,99.90
2018-05-12T22:49:19.433Z,99.90
2018-05-12T22:51:46.861Z,99.90
2018-05-12T22:54:14.295Z,99.90
2018-05-12T22:56:42.499Z,99.90
2018-05-12T22:59:10.031Z,99.90
2018-05-12T23:01:38.235Z,99.90
2018-05-12T23:04:05.848Z,99.90
2018-05-12T23:06:33.209Z,99.90
2018-05-12T23:09:02.156Z,99.90
2018-05-12T23:11:30.367Z,99.90
2018-05-12T23:13:57.791Z,99.90
2018-05-12T23:16:25.256Z,99.90
2018-05-12T23:18:52.975Z,99.90
2018-05-12T23:21:21.175Z,99.90
2018-05-12T23:23:48.607Z,99.90
2018-05-12T23:26:18.342Z,99.90
2018-05-12T23:28:45.783Z,99.90
2018-05-12T23:31:13.987Z,99.90
2018-05-12T23:33:41.433Z,99.90
2018-05-12T23:36:08.862Z,99.90
2018-05-12T23:38:37.067Z,99.90
2018-05-12T23:41:04.501Z,99.90
2018-05-12T23:43:32.708Z,99.90
2018-05-12T23:46:00.135Z,99.90
2018-05-12T23:48:27.654Z,99.90
2018-05-12T23:50:55.088Z,99.90
2018-05-12T23:53:22.557Z,99.90
2018-05-12T23:55:50.002Z,99.90
2018-05-12T23:58:17.513Z,99.90
